Time;durP1;ratioP1;P1;durP2;ratioP2;P2;SDS_P1;SDS_P2;PMS_P1;PMS_P2;Temp;Humidity;BMP_temperature;BMP_pressure;BME280_temperature;BME280_humidity;BME280_pressure;Samples;Min_cycle;Max_cycle;Signal;HPM_P1;HPM_P2
2023/07/28 00:01:57;;;;;;;4.80;3.78;;;15.80;99.90;;;;;;7554664;19;20545;-81
2023/07/28 00:04:29;;;;;;;6.85;4.40;;;15.80;99.90;;;;;;7584710;19;20030;-81
2023/07/28 00:07:03;;;;;;;6.53;3.60;;;15.80;99.90;;;;;;7559165;19;20014;-80
2023/07/28 00:09:35;;;;;;;;;;;15.70;99.90;;;;;;7563956;19;20060;-82
2023/07/28 00:12:08;;;;;;;7.53;4.07;;;15.70;99.90;;;;;;7563517;19;20099;-81
2023/07/28 00:14:40;;;;;;;12.00;4.70;;;15.60;99.90;;;;;;7569215;19;21106;-81
2023/07/28 00:17:12;;;;;;;7.47;3.72;;;15.60;99.90;;;;;;7548338;19;20014;-81
2023/07/28 00:19:44;;;;;;;7.78;3.95;;;15.50;99.90;;;;;;7573328;19;20014;-83
2023/07/28 00:22:17;;;;;;;5.03;4.18;;;15.50;99.90;;;;;;7576667;19;20014;-81
2023/07/28 00:24:49;;;;;;;7.95;3.58;;;15.50;99.90;;;;;;7564937;19;20006;-80
2023/07/28 00:27:21;;;;;;;4.78;3.72;;;15.60;99.90;;;;;;7564118;19;20019;-81
2023/07/28 00:29:54;;;;;;;9.95;4.13;;;15.60;99.90;;;;;;7570182;19;20035;-80
2023/07/28 00:32:26;;;;;;;7.03;3.58;;;15.60;99.90;;;;;;7568970;19;20086;-81
2023/07/28 00:34:59;;;;;;;4.65;3.45;;;15.60;99.90;;;;;;7584874;19;20505;-81
2023/07/28 00:37:31;;;;;;;9.10;3.53;;;15.60;99.90;;;;;;7589120;19;20538;-82
2023/07/28 00:40:04;;;;;;;6.67;4.33;;;15.50;99.90;;;;;;7582504;19;20033;-81
2023/07/28 00:42:37;;;;;;;4.60;3.17;;;15.50;99.90;;;;;;7548860;19;20263;-81
2023/07/28 00:45:09;;;;;;;7.40;3.85;;;15.50;99.90;;;;;;7558383;19;20039;-81
2023/07/28 00:47:42;;;;;;;7.43;4.07;;;15.50;99.90;;;;;;7570391;19;20890;-81
2023/07/28 00:50:14;;;;;;;5.47;3.80;;;15.50;99.90;;;;;;7572127;19;20018;-81
2023/07/28 00:52:47;;;;;;;13.77;4.10;;;15.50;99.90;;;;;;7578986;19;20014;-80
2023/07/28 00:55:20;;;;;;;11.82;3.97;;;15.60;99.90;;;;;;7601317;19;20031;-82
2023/07/28 00:57:52;;;;;;;4.82;3.42;;;15.50;99.90;;;;;;7607144;19;20018;-80
2023/07/28 01:00:25;;;;;;;6.72;3.60;;;15.60;99.90;;;;;;7576361;19;20600;-81
2023/07/28 01:02:57;;;;;;;6.85;3.45;;;15.60;99.90;;;;;;7572727;19;20749;-81
2023/07/28 01:05:39;;;;;;;6.20;4.03;;;15.60;99.90;;;;;;7581377;19;20014;-81
2023/07/28 01:08:31;;;;;;;6.60;3.58;;;15.60;99.90;;;;;;7576393;19;20017;-81
2023/07/28 01:11:04;;;;;;;5.82;3.90;;;15.60;99.90;;;;;;7536225;19;20018;-82
2023/07/28 01:13:36;;;;;;;6.82;3.67;;;15.60;99.90;;;;;;7576674;19;20616;-82
2023/07/28 01:16:09;;;;;;;4.85;3.70;;;15.60;99.90;;;;;;7551853;19;20570;-82
2023/07/28 01:18:42;;;;;;;6.43;3.72;;;15.70;99.90;;;;;;7577050;19;20609;-81
2023/07/28 01:21:20;;;;;;;4.07;3.08;;;15.70;99.90;;;;;;7552843;19;20048;-81
2023/07/28 01:24:15;;;;;;;6.63;3.35;;;15.70;99.90;;;;;;7563352;19;20010;-82
2023/07/28 01:26:49;;;;;;;7.00;4.00;;;15.70;99.90;;;;;;7549392;19;21993;-82
2023/07/28 01:29:22;;;;;;;5.68;3.38;;;15.70;99.90;;;;;;7566528;19;20058;-80
2023/07/28 01:31:54;;;;;;;6.72;3.75;;;15.70;99.90;;;;;;7558948;19;20056;-81
2023/07/28 01:34:26;;;;;;;5.90;3.88;;;15.80;99.90;;;;;;7577554;19;20888;-81
2023/07/28 01:36:59;;;;;;;8.52;4.30;;;15.80;99.90;;;;;;7570697;19;20031;-79
2023/07/28 01:39:31;;;;;;;9.02;4.60;;;15.80;99.90;;;;;;7566591;19;20070;-80
2023/07/28 01:42:03;;;;;;;7.80;4.28;;;15.80;99.90;;;;;;7564388;19;20907;-81
2023/07/28 01:44:35;;;;;;;8.35;4.65;;;15.80;99.90;;;;;;7555900;19;20864;-81
2023/07/28 01:47:08;;;;;;;10.43;4.90;;;15.80;99.90;;;;;;7566639;19;20054;-82
2023/07/28 01:49:40;;;;;;;7.38;4.45;;;15.70;99.90;;;;;;7594206;19;20007;-82
2023/07/28 01:52:13;;;;;;;8.75;4.78;;;15.60;99.90;;;;;;7576141;19;20430;-81
2023/07/28 01:54:45;;;;;;;9.32;4.35;;;15.60;99.90;;;;;;7568987;19;20166;-82
2023/07/28 01:57:18;;;;;;;8.55;4.38;;;15.60;99.90;;;;;;7558635;19;20010;-80
2023/07/28 01:59:51;;;;;;;10.20;4.40;;;15.50;99.90;;;;;;7584391;19;20308;-82
2023/07/28 02:02:23;;;;;;;7.85;4.30;;;15.60;99.90;;;;;;7548995;19;21627;-81
2023/07/28 02:04:56;;;;;;;12.10;4.55;;;15.50;99.90;;;;;;7549764;19;20011;-80
2023/07/28 02:07:28;;;;;;;8.90;4.82;;;15.50;99.90;;;;;;7577118;19;20476;-81
2023/07/28 02:10:01;;;;;;;7.22;4.55;;;15.40;99.90;;;;;;7581177;19;20558;-82
2023/07/28 02:12:33;;;;;;;7.10;4.05;;;15.30;99.90;;;;;;7545534;19;20011;-81
2023/07/28 02:15:07;;;;;;;11.85;5.18;;;15.30;99.90;;;;;;7552721;19;20021;-81
2023/07/28 02:17:39;;;;;;;;;;;15.40;99.90;;;;;;7571291;19;20522;-83
2023/07/28 02:20:12;;;;;;;6.72;3.80;;;15.30;99.90;;;;;;7566447;19;19960;-82
2023/07/28 02:22:45;;;;;;;8.07;3.97;;;15.30;99.90;;;;;;7557473;19;20011;-82
2023/07/28 02:25:17;;;;;;;6.18;3.50;;;15.20;99.90;;;;;;7550823;19;20018;-83
2023/07/28 02:27:50;;;;;;;5.28;3.50;;;15.20;99.90;;;;;;7575670;19;20553;-81
2023/07/28 02:30:22;;;;;;;6.30;3.80;;;15.10;99.90;;;;;;7561297;19;20042;-82
2023/07/28 02:32:54;;;;;;;6.65;3.78;;;15.00;99.90;;;;;;7552649;19;20017;-82
2023/07/28 02:35:26;;;;;;;8.85;3.72;;;15.10;99.90;;;;;;7578062;19;20014;-80
2023/07/28 02:37:58;;;;;;;6.10;3.78;;;15.10;99.90;;;;;;7557823;19;20018;-80
2023/07/28 02:40:32;;;;;;;7.32;4.38;;;15.10;99.90;;;;;;7557645;19;20018;-81
2023/07/28 02:43:05;;;;;;;6.13;3.60;;;15.00;99.90;;;;;;7574129;19;20022;-84
2023/07/28 02:45:37;;;;;;;6.05;3.95;;;14.90;99.90;;;;;;7533843;19;20042;-83
2023/07/28 02:48:09;;;;;;;6.18;3.20;;;14.80;99.90;;;;;;7581160;19;20483;-82
2023/07/28 02:50:46;;;;;;;6.68;3.70;;;14.90;99.90;;;;;;7571828;19;20517;-82
2023/07/28 02:53:19;;;;;;;5.90;3.63;;;14.80;99.90;;;;;;7542329;19;20024;-81
2023/07/28 02:55:51;;;;;;;6.03;3.57;;;14.90;99.90;;;;;;7557514;19;20018;-81
2023/07/28 02:58:23;;;;;;;5.30;3.33;;;14.90;99.90;;;;;;7569074;19;20030;-81
2023/07/28 03:00:56;;;;;;;6.30;3.45;;;14.80;99.90;;;;;;7563104;19;20458;-81
2023/07/28 03:03:36;;;;;;;7.93;3.83;;;14.70;99.90;;;;;;7565082;19;20018;-81
2023/07/28 03:06:08;;;;;;;6.55;2.95;;;14.60;99.90;;;;;;7580495;19;20018;-80
2023/07/28 03:08:42;;;;;;;9.27;3.05;;;14.60;99.90;;;;;;7566778;19;20546;-80
2023/07/28 03:11:28;;;;;;;8.00;2.85;;;14.70;99.90;;;;;;7518838;19;20002;-82
2023/07/28 03:14:00;;;;;;;4.70;3.00;;;14.80;99.90;;;;;;7541612;19;20018;-81
2023/07/28 03:16:33;;;;;;;5.15;3.00;;;14.80;99.90;;;;;;7552485;19;20018;-81
2023/07/28 03:19:06;;;;;;;6.35;3.10;;;14.90;99.90;;;;;;7567785;19;20676;-81
2023/07/28 03:21:38;;;;;;;5.35;3.55;;;14.80;99.90;;;;;;7571191;19;20101;-80
2023/07/28 03:24:11;;;;;;;6.25;3.80;;;14.80;99.90;;;;;;7536720;19;20015;-80
2023/07/28 03:26:43;;;;;;;5.18;2.80;;;14.80;99.90;;;;;;7559212;19;20560;-80
2023/07/28 03:29:16;;;;;;;4.55;2.97;;;14.80;99.90;;;;;;7550687;19;20348;-82
2023/07/28 03:31:48;;;;;;;4.03;3.25;;;14.80;99.90;;;;;;7557060;19;20011;-81
2023/07/28 03:34:22;;;;;;;;;;;14.80;99.90;;;;;;7571546;19;20108;-82
2023/07/28 03:36:56;;;;;;;10.05;3.30;;;14.90;99.90;;;;;;7567298;19;20043;-81
2023/07/28 03:39:29;;;;;;;7.03;3.93;;;14.90;99.90;;;;;;7574775;19;20023;-80
2023/07/28 03:42:02;;;;;;;4.88;3.13;;;14.90;99.90;;;;;;7545576;19;20684;-80
2023/07/28 03:44:37;;;;;;;5.60;3.38;;;14.80;99.90;;;;;;7555023;19;20373;-81
2023/07/28 03:47:10;;;;;;;6.78;3.08;;;14.80;99.90;;;;;;7554076;19;20010;-82
2023/07/28 03:49:42;;;;;;;5.65;3.40;;;14.90;99.90;;;;;;7588095;19;20022;-81
2023/07/28 03:52:14;;;;;;;3.92;2.90;;;14.80;99.90;;;;;;7559385;19;20046;-80
2023/07/28 03:54:46;;;;;;;6.10;3.08;;;14.90;99.90;;;;;;7553907;19;20025;-79
2023/07/28 03:57:19;;;;;;;6.22;3.13;;;14.90;99.90;;;;;;7584251;19;20345;-79
2023/07/28 03:59:51;;;;;;;4.07;3.17;;;14.90;99.90;;;;;;7584445;19;20371;-80
2023/07/28 04:02:23;;;;;;;4.50;3.17;;;14.90;99.90;;;;;;7533459;19;20727;-82
2023/07/28 04:04:56;;;;;;;4.35;3.10;;;15.00;99.90;;;;;;7528609;19;20018;-80
2023/07/28 04:07:28;;;;;;;4.40;2.97;;;15.00;99.90;;;;;;7568926;19;20356;-81
2023/07/28 04:10:01;;;;;;;6.38;3.03;;;15.10;99.90;;;;;;7566214;19;20010;-81
2023/07/28 04:12:33;;;;;;;5.50;3.53;;;15.10;99.90;;;;;;7560993;19;20017;-80
2023/07/28 04:15:06;;;;;;;4.13;2.90;;;15.10;99.90;;;;;;7557563;19;20499;-81
2023/07/28 04:17:38;;;;;;;5.47;2.93;;;15.10;99.90;;;;;;7545671;19;20655;-81
2023/07/28 04:20:11;;;;;;;7.70;3.63;;;15.20;99.90;;;;;;7561859;19;20781;-81
2023/07/28 04:22:43;;;;;;;6.60;3.47;;;15.30;99.90;;;;;;7544903;19;21307;-83
2023/07/28 04:25:16;;;;;;;5.20;3.47;;;15.30;99.90;;;;;;7545194;19;20006;-81
2023/07/28 04:27:51;;;;;;;4.82;3.47;;;15.30;99.90;;;;;;7538917;19;20106;-80
2023/07/28 04:30:24;;;;;;;6.05;3.13;;;15.40;99.90;;;;;;7546567;19;20434;-80
2023/07/28 04:32:57;;;;;;;5.47;3.22;;;15.50;99.90;;;;;;7511173;19;20643;-80
2023/07/28 04:35:36;;;;;;;5.22;3.47;;;15.60;99.90;;;;;;7551142;19;20817;-80
2023/07/28 04:38:18;;;;;;;6.07;3.15;;;15.70;99.90;;;;;;7562852;19;20015;-81
2023/07/28 04:40:54;;;;;;;5.50;3.63;;;15.70;99.90;;;;;;7540745;19;20029;-81
2023/07/28 04:43:33;;;;;;;8.45;3.00;;;15.80;99.90;;;;;;7543350;19;20714;-81
2023/07/28 04:46:06;;;;;;;4.30;2.83;;;15.80;99.90;;;;;;7552233;19;20006;-80
2023/07/28 04:48:38;;;;;;;5.27;3.60;;;15.90;99.90;;;;;;7527608;19;20498;-82
2023/07/28 04:51:30;;;;;;;3.50;2.90;;;15.90;99.90;;;;;;7506928;19;20397;-81
2023/07/28 04:54:23;;;;;;;7.88;3.20;;;16.00;99.90;;;;;;7508849;19;20006;-82
2023/07/28 04:56:55;;;;;;;7.03;3.03;;;16.00;99.90;;;;;;7483323;19;20560;-81
2023/07/28 04:59:34;;;;;;;5.57;3.45;;;16.10;99.90;;;;;;7514159;19;20022;-83
2023/07/28 05:02:06;;;;;;;4.03;3.05;;;16.20;99.90;;;;;;7540612;19;20015;-82
2023/07/28 05:04:39;;;;;;;4.27;3.03;;;16.20;99.90;;;;;;7560653;19;20513;-82
2023/07/28 05:07:11;;;;;;;4.32;3.03;;;16.30;99.90;;;;;;7569616;19;20931;-82
2023/07/28 05:09:44;;;;;;;5.05;3.30;;;16.30;99.90;;;;;;7552610;19;20389;-82
2023/07/28 05:12:17;;;;;;;7.60;3.42;;;16.20;99.90;;;;;;7578626;19;20013;-82
2023/07/28 05:14:53;;;;;;;5.80;3.42;;;16.20;99.90;;;;;;7562090;19;20022;-81
2023/07/28 05:17:25;;;;;;;5.28;3.20;;;16.20;99.90;;;;;;7533842;19;20018;-81
2023/07/28 05:20:10;;;;;;;6.03;3.25;;;16.30;99.90;;;;;;7526210;19;20014;-81
2023/07/28 05:22:49;;;;;;;5.07;3.25;;;16.30;99.90;;;;;;7541943;19;20006;-82
2023/07/28 05:25:22;;;;;;;5.03;3.60;;;16.40;99.90;;;;;;7566955;19;20044;-81
2023/07/28 05:27:55;;;;;;;7.20;3.40;;;16.40;99.90;;;;;;7526347;19;20566;-82
2023/07/28 05:30:28;;;;;;;8.18;3.75;;;16.40;99.90;;;;;;7518735;19;20271;-82
2023/07/28 05:33:03;;;;;;;9.52;3.78;;;16.40;99.90;;;;;;7521212;19;20021;-83
2023/07/28 05:35:59;;;;;;;10.95;4.20;;;16.50;99.90;;;;;;7536401;19;20115;-83
2023/07/28 05:38:36;;;;;;;6.70;3.97;;;16.60;99.90;;;;;;7569398;19;20056;-83
2023/07/28 05:41:08;;;;;;;6.78;3.60;;;16.60;99.90;;;;;;7554021;19;20025;-82
2023/07/28 05:43:41;;;;;;;6.07;3.60;;;16.70;99.90;;;;;;7547138;19;20017;-83
2023/07/28 05:46:13;;;;;;;6.03;3.55;;;16.80;99.90;;;;;;7546793;19;20006;-83
2023/07/28 05:48:46;;;;;;;5.53;3.80;;;16.80;99.90;;;;;;7545308;19;20057;-81
2023/07/28 05:51:18;;;;;;;9.63;3.55;;;16.80;99.90;;;;;;7559078;19;20310;-83
2023/07/28 05:53:50;;;;;;;5.63;4.03;;;16.90;99.90;;;;;;7539848;19;22546;-82
2023/07/28 05:56:25;;;;;;;8.90;3.80;;;17.00;99.90;;;;;;7550155;19;20052;-83
2023/07/28 05:58:57;;;;;;;8.45;4.50;;;17.00;99.90;;;;;;7558633;19;20392;-82
2023/07/28 06:01:29;;;;;;;6.78;4.05;;;17.10;99.90;;;;;;7553284;19;20511;-82
2023/07/28 06:04:20;;;;;;;6.38;4.05;;;17.10;99.90;;;;;;7543813;19;20033;-82
2023/07/28 06:06:55;;;;;;;9.30;3.80;;;17.20;99.90;;;;;;7536234;19;20714;-81
2023/07/28 06:09:28;;;;;;;7.05;3.60;;;17.30;99.90;;;;;;7527944;19;20019;-81
2023/07/28 06:12:00;;;;;;;7.70;3.73;;;17.30;99.90;;;;;;7548869;19;20066;-81
2023/07/28 06:14:32;;;;;;;6.93;3.80;;;17.40;99.90;;;;;;7553777;19;20282;-82
2023/07/28 06:17:07;;;;;;;5.85;3.45;;;17.50;99.90;;;;;;7540969;19;20727;-81
2023/07/28 06:19:39;;;;;;;;;;;17.60;99.90;;;;;;7503205;19;20413;-80
2023/07/28 06:22:12;;;;;;;8.90;3.83;;;17.70;99.90;;;;;;7515354;19;19918;-82
2023/07/28 06:24:48;;;;;;;5.60;3.20;;;17.90;99.90;;;;;;7499498;19;20518;-83
2023/07/28 06:27:20;;;;;;;4.80;2.80;;;18.00;99.90;;;;;;7519825;19;20658;-81
2023/07/28 06:29:52;;;;;;;9.38;3.45;;;18.20;99.90;;;;;;7549749;19;21918;-83
2023/07/28 06:32:25;;;;;;;4.43;3.33;;;18.30;99.90;;;;;;7556422;19;20700;-82
2023/07/28 06:34:57;;;;;;;4.75;3.20;;;18.50;99.90;;;;;;7555956;19;20064;-82
2023/07/28 06:37:29;;;;;;;7.53;3.13;;;18.60;99.90;;;;;;7570164;19;20018;-81
2023/07/28 06:40:03;;;;;;;5.15;2.85;;;18.90;99.90;;;;;;7508876;19;20379;-81
2023/07/28 06:42:37;;;;;;;3.53;2.85;;;19.00;99.90;;;;;;7549258;19;20029;-82
2023/07/28 06:45:11;;;;;;;6.60;3.25;;;19.00;99.90;;;;;;7520090;19;20851;-81
2023/07/28 06:47:43;;;;;;;5.70;2.97;;;19.10;99.90;;;;;;7454551;19;20014;-81
2023/07/28 06:50:16;;;;;;;3.30;2.60;;;19.00;99.90;;;;;;7501731;19;20234;-81
2023/07/28 06:52:49;;;;;;;5.18;3.42;;;19.10;99.90;;;;;;7521212;19;20059;-81
2023/07/28 06:55:26;;;;;;;5.68;2.85;;;19.40;99.90;;;;;;7546078;19;20019;-81
2023/07/28 06:57:58;;;;;;;4.57;2.97;;;19.50;99.90;;;;;;7521553;19;20642;-81
2023/07/28 07:00:31;;;;;;;4.15;2.63;;;19.70;99.90;;;;;;7533801;19;20038;-81
2023/07/28 07:03:03;;;;;;;4.82;2.65;;;19.70;99.90;;;;;;7556037;19;20706;-82
2023/07/28 07:05:35;;;;;;;5.70;3.22;;;19.70;99.90;;;;;;7550598;19;20018;-81
2023/07/28 07:08:07;;;;;;;4.20;2.70;;;19.70;99.90;;;;;;7519185;19;20021;-80
2023/07/28 07:10:39;;;;;;;5.10;2.85;;;19.60;99.90;;;;;;7544328;19;20014;-82
2023/07/28 07:13:11;;;;;;;4.88;2.53;;;19.70;99.90;;;;;;7567837;19;20010;-81
2023/07/28 07:15:45;;;;;;;7.97;3.10;;;19.90;99.90;;;;;;7554113;19;20021;-80
2023/07/28 07:18:17;;;;;;;;;;;20.00;99.90;;;;;;7565452;19;20021;-79
2023/07/28 07:20:50;;;;;;;3.75;2.83;;;20.10;99.90;;;;;;7563961;19;20573;-81
2023/07/28 07:23:22;;;;;;;4.00;2.53;;;20.20;99.90;;;;;;7496951;19;20011;-81
2023/07/28 07:25:54;;;;;;;3.53;2.58;;;20.30;99.90;;;;;;7551490;19;20054;-85
2023/07/28 07:28:28;;;;;;;5.15;2.92;;;20.40;99.90;;;;;;7507768;19;20019;-83
2023/07/28 07:31:01;;;;;;;5.57;3.00;;;20.30;99.90;;;;;;7497238;19;20010;-82
2023/07/28 07:33:33;;;;;;;5.67;3.37;;;20.40;99.90;;;;;;7510760;19;20020;-81
2023/07/28 07:36:05;;;;;;;12.35;2.60;;;20.40;99.90;;;;;;7534284;19;20500;-82
2023/07/28 07:38:38;;;;;;;6.63;3.25;;;20.40;99.90;;;;;;7528131;19;20269;-81
2023/07/28 07:41:11;;;;;;;9.27;3.58;;;20.50;99.90;;;;;;7534245;19;20460;-82
2023/07/28 07:43:43;;;;;;;;;;;20.60;99.90;;;;;;7530741;19;20018;-78
2023/07/28 07:46:16;;;;;;;5.07;2.80;;;20.70;99.90;;;;;;7572581;19;20302;-78
2023/07/28 07:48:48;;;;;;;4.10;2.67;;;20.70;99.90;;;;;;7544852;19;20010;-78
2023/07/28 07:51:20;;;;;;;5.30;3.17;;;20.70;99.90;;;;;;7519051;19;20056;-77
2023/07/28 07:53:52;;;;;;;4.95;2.85;;;20.70;99.90;;;;;;7535083;19;20521;-78
2023/07/28 07:56:24;;;;;;;4.55;3.00;;;20.90;99.90;;;;;;7569664;19;20002;-77
2023/07/28 07:58:57;;;;;;;4.25;2.92;;;21.10;99.90;;;;;;7551996;19;20010;-78
2023/07/28 08:01:29;;;;;;;9.18;2.67;;;21.20;99.90;;;;;;7547743;19;20700;-79
2023/07/28 08:04:01;;;;;;;4.55;3.05;;;21.40;99.90;;;;;;7551099;19;20014;-76
2023/07/28 08:06:34;;;;;;;5.35;3.53;;;21.50;99.90;;;;;;7537090;19;22144;-77
2023/07/28 08:09:06;;;;;;;4.83;3.30;;;21.50;99.90;;;;;;7559435;19;20093;-78
2023/07/28 08:11:39;;;;;;;4.97;2.70;;;21.60;99.90;;;;;;7539014;19;21119;-77
2023/07/28 08:14:11;;;;;;;3.88;2.70;;;21.80;99.90;;;;;;7550273;19;20011;-77
2023/07/28 08:16:44;;;;;;;4.15;2.50;;;21.90;99.90;;;;;;7552451;19;20014;-79
2023/07/28 08:19:16;;;;;;;5.47;2.80;;;22.00;99.90;;;;;;7484259;19;20293;-78
2023/07/28 08:21:48;;;;;;;3.85;2.72;;;22.00;99.90;;;;;;7538610;19;20688;-78
2023/07/28 08:24:20;;;;;;;7.57;2.78;;;22.20;99.90;;;;;;7559910;19;20542;-77
2023/07/28 08:26:53;;;;;;;6.15;3.03;;;22.40;99.90;;;;;;7555240;19;20021;-80
2023/07/28 08:29:25;;;;;;;4.85;3.20;;;22.60;99.90;;;;;;7541198;19;20015;-79
2023/07/28 08:31:58;;;;;;;6.45;2.78;;;22.80;99.90;;;;;;7505184;19;22178;-76
2023/07/28 08:34:30;;;;;;;3.88;2.72;;;23.00;99.90;;;;;;7495641;19;21146;-79
2023/07/28 08:37:03;;;;;;;3.67;2.80;;;23.00;99.90;;;;;;7562177;19;20363;-79
2023/07/28 08:39:35;;;;;;;3.47;2.63;;;23.10;99.90;;;;;;7547047;19;20022;-79
2023/07/28 08:42:07;;;;;;;5.18;2.70;;;23.30;99.90;;;;;;7535018;19;20537;-81
2023/07/28 08:44:39;;;;;;;4.45;2.55;;;23.40;99.90;;;;;;7537113;19;20011;-76
2023/07/28 08:47:12;;;;;;;4.78;2.85;;;23.60;99.90;;;;;;7551693;19;20019;-80
2023/07/28 08:49:44;;;;;;;3.47;2.75;;;23.90;99.90;;;;;;7540216;19;20045;-79
2023/07/28 08:52:20;;;;;;;7.47;2.92;;;24.00;99.90;;;;;;7532076;19;20022;-79
2023/07/28 08:54:55;;;;;;;5.40;3.25;;;23.70;99.90;;;;;;7571143;19;20018;-80
2023/07/28 08:57:27;;;;;;;4.63;3.00;;;23.70;99.90;;;;;;7569885;19;20018;-79
2023/07/28 09:00:07;;;;;;;4.15;3.00;;;23.80;99.90;;;;;;7562123;19;20909;-80
2023/07/28 09:02:43;;;;;;;5.43;2.40;;;23.90;99.90;;;;;;7565734;19;20135;-80
2023/07/28 09:05:20;;;;;;;4.72;2.83;;;24.10;99.60;;;;;;7564224;19;20026;-81
2023/07/28 09:07:52;;;;;;;8.88;2.88;;;24.10;99.00;;;;;;7563702;19;20022;-78
2023/07/28 09:10:45;;;;;;;3.80;2.70;;;24.30;98.30;;;;;;7571095;19;20693;-78
2023/07/28 09:13:18;;;;;;;3.90;2.85;;;24.30;98.30;;;;;;7584775;19;20092;-82
2023/07/28 09:15:50;;;;;;;;;;;24.40;98.00;;;;;;7567680;19;20577;-81
2023/07/28 09:18:27;;;;;;;8.20;3.00;;;24.40;98.50;;;;;;7566912;19;19956;-79
2023/07/28 09:20:59;;;;;;;3.50;2.83;;;24.40;97.40;;;;;;7506848;19;20983;-79
2023/07/28 09:23:32;;;;;;;3.63;2.67;;;24.30;96.50;;;;;;7570655;19;20854;-80
2023/07/28 09:26:05;;;;;;;3.80;3.10;;;24.30;96.90;;;;;;7586227;19;20015;-80
2023/07/28 09:28:41;;;;;;;3.75;2.70;;;24.30;97.70;;;;;;7577411;19;20035;-80
2023/07/28 09:31:14;;;;;;;3.78;2.90;;;24.30;98.00;;;;;;7558297;19;20731;-81
2023/07/28 09:33:48;;;;;;;5.07;2.60;;;24.30;97.30;;;;;;7547061;19;20011;-80
2023/07/28 09:36:25;;;;;;;3.35;2.83;;;24.10;96.90;;;;;;7545536;19;20015;-79
2023/07/28 09:38:58;;;;;;;3.63;2.92;;;24.00;97.00;;;;;;7526812;19;20010;-78
2023/07/28 09:41:31;;;;;;;3.42;2.72;;;24.00;96.80;;;;;;7568979;19;20475;-79
2023/07/28 09:44:07;;;;;;;3.47;2.78;;;23.80;97.00;;;;;;7535208;19;20424;-82
2023/07/28 09:46:53;;;;;;;5.57;2.90;;;23.70;96.90;;;;;;7542094;19;20433;-80
2023/07/28 09:49:37;;;;;;;6.25;2.95;;;23.70;96.90;;;;;;7584922;19;20030;-82
2023/07/28 09:52:10;;;;;;;4.13;2.65;;;23.70;97.00;;;;;;7579468;19;20334;-79
2023/07/28 09:54:46;;;;;;;7.72;3.67;;;23.60;96.60;;;;;;7602254;19;20027;-80
2023/07/28 09:57:20;;;;;;;4.95;3.00;;;23.60;97.30;;;;;;7585124;19;20100;-79
2023/07/28 09:59:56;;;;;;;4.20;3.10;;;23.50;97.10;;;;;;7577662;19;20022;-77
2023/07/28 10:02:29;;;;;;;4.70;3.28;;;23.40;97.40;;;;;;7549695;19;20933;-79
2023/07/28 10:05:02;;;;;;;6.20;3.40;;;23.40;97.10;;;;;;7545854;19;20503;-80
2023/07/28 10:07:40;;;;;;;3.30;2.78;;;23.50;97.20;;;;;;7568494;19;20014;-77
2023/07/28 10:10:14;;;;;;;10.02;2.97;;;23.50;97.00;;;;;;7555177;19;20018;-80
2023/07/28 10:12:50;;;;;;;10.40;3.63;;;23.60;96.60;;;;;;7537849;19;20287;-81
2023/07/28 10:15:32;;;;;;;4.32;3.05;;;23.70;97.00;;;;;;7555187;19;21095;-78
2023/07/28 10:18:07;;;;;;;3.83;2.70;;;23.70;97.10;;;;;;7529693;19;20019;-79
2023/07/28 10:20:43;;;;;;;3.83;3.20;;;23.80;96.90;;;;;;7535874;19;20056;-78
2023/07/28 10:23:17;;;;;;;3.50;2.85;;;23.70;96.80;;;;;;7547168;19;20074;-79
2023/07/28 10:25:58;;;;;;;3.60;2.58;;;23.80;96.10;;;;;;7549960;19;20529;-80
2023/07/28 10:28:38;;;;;;;5.30;3.20;;;23.90;97.10;;;;;;7565477;19;20039;-80
2023/07/28 10:31:13;;;;;;;4.03;2.95;;;24.00;96.10;;;;;;7506571;19;20046;-80
2023/07/28 10:33:46;;;;;;;5.13;3.22;;;23.90;95.40;;;;;;7532684;19;20018;-79
2023/07/28 10:36:36;;;;;;;5.05;3.25;;;23.90;96.30;;;;;;7558748;19;20222;-79
2023/07/28 10:39:17;;;;;;;4.80;2.97;;;23.80;95.60;;;;;;7590276;19;20026;-79
2023/07/28 10:42:08;;;;;;;5.22;3.10;;;23.70;94.80;;;;;;7551494;19;20017;-79
2023/07/28 10:44:41;;;;;;;3.20;2.85;;;23.70;95.80;;;;;;7537656;19;20014;-80
2023/07/28 10:47:13;;;;;;;3.58;3.17;;;23.80;95.00;;;;;;7584686;19;20043;-80
2023/07/28 10:49:47;;;;;;;5.15;3.35;;;23.70;94.20;;;;;;7593817;19;20693;-80
2023/07/28 10:52:23;;;;;;;4.57;3.33;;;23.70;94.20;;;;;;7570855;19;20021;-81
2023/07/28 10:54:57;;;;;;;7.82;2.97;;;23.80;94.70;;;;;;7562808;19;20317;-80
2023/07/28 10:57:30;;;;;;;4.93;3.90;;;23.70;95.30;;;;;;7575434;19;20053;-81
2023/07/28 11:00:02;;;;;;;4.35;3.33;;;23.70;94.50;;;;;;7559516;19;20022;-79
2023/07/28 11:02:42;;;;;;;6.13;3.17;;;23.70;94.60;;;;;;7581180;19;20577;-79
2023/07/28 11:05:22;;;;;;;6.20;3.03;;;23.50;93.90;;;;;;7577094;19;20598;-80
2023/07/28 11:08:01;;;;;;;8.35;3.33;;;23.60;94.20;;;;;;7580634;19;20396;-81
2023/07/28 11:10:35;;;;;;;3.90;3.22;;;23.60;94.60;;;;;;7570555;19;20562;-77
2023/07/28 11:13:07;;;;;;;6.72;3.10;;;23.60;94.60;;;;;;7555246;19;20014;-80
2023/07/28 11:16:00;;;;;;;6.50;3.30;;;23.50;95.30;;;;;;7546716;19;20493;-82
2023/07/28 11:18:34;;;;;;;5.05;3.00;;;23.60;95.20;;;;;;7552785;19;20478;-81
2023/07/28 11:21:06;;;;;;;3.50;2.78;;;23.60;94.70;;;;;;7579845;19;20022;-79
2023/07/28 11:23:43;;;;;;;5.38;3.40;;;23.70;95.40;;;;;;7542780;19;20589;-79
2023/07/28 11:26:17;;;;;;;4.68;3.38;;;23.80;94.70;;;;;;7550041;19;20026;-81
2023/07/28 11:28:49;;;;;;;4.22;2.88;;;23.90;95.20;;;;;;7562864;19;21382;-81
2023/07/28 11:31:25;;;;;;;5.13;3.15;;;24.10;94.70;;;;;;7579926;19;20013;-79
2023/07/28 11:33:58;;;;;;;3.67;2.90;;;24.20;95.20;;;;;;7549881;19;20458;-79
2023/07/28 11:36:33;;;;;;;6.07;2.95;;;24.30;93.80;;;;;;7550601;19;20047;-78
2023/07/28 11:39:06;;;;;;;3.83;2.90;;;24.20;93.90;;;;;;7547846;19;20018;-80
2023/07/28 11:41:40;;;;;;;3.97;3.17;;;24.10;93.20;;;;;;7551582;19;20470;-79
2023/07/28 11:44:13;;;;;;;4.80;3.40;;;24.10;93.50;;;;;;7562316;19;20040;-80
2023/07/28 11:46:45;;;;;;;5.07;3.50;;;24.30;93.60;;;;;;7552778;19;20497;-80
2023/07/28 11:49:22;;;;;;;14.13;3.50;;;24.30;93.20;;;;;;7562922;19;20920;-78
2023/07/28 11:51:58;;;;;;;4.30;2.80;;;24.30;92.70;;;;;;7577399;19;20019;-79
2023/07/28 11:54:31;;;;;;;4.55;3.15;;;24.40;92.50;;;;;;7567937;19;20017;-80
2023/07/28 11:57:04;;;;;;;5.37;3.17;;;24.50;92.00;;;;;;7566223;19;20007;-79
2023/07/28 11:59:36;;;;;;;4.40;3.33;;;24.70;92.20;;;;;;7579823;19;20030;-79
2023/07/28 12:02:10;;;;;;;5.15;3.35;;;25.20;92.80;;;;;;7574258;19;20006;-77
2023/07/28 12:04:47;;;;;;;4.13;3.28;;;25.40;91.80;;;;;;7581286;19;20021;-77
2023/07/28 12:07:32;;;;;;;5.88;3.22;;;25.50;91.60;;;;;;7586928;19;23767;-81
2023/07/28 12:10:08;;;;;;;4.38;3.20;;;25.40;91.80;;;;;;7596832;19;20035;-78
2023/07/28 12:12:46;;;;;;;4.75;2.95;;;25.30;91.30;;;;;;7567436;19;20039;-79
2023/07/28 12:15:30;;;;;;;6.40;3.15;;;25.30;90.90;;;;;;7564477;19;20034;-79
2023/07/28 12:18:10;;;;;;;7.40;3.53;;;25.40;91.50;;;;;;7583525;19;20590;-78
2023/07/28 12:20:47;;;;;;;4.93;2.88;;;25.60;90.70;;;;;;7581038;19;20569;-79
2023/07/28 12:23:21;;;;;;;6.28;2.85;;;25.60;91.60;;;;;;7559248;19;20573;-84
2023/07/28 12:25:58;;;;;;;3.58;3.00;;;25.60;90.70;;;;;;7544345;19;20044;-82
2023/07/28 12:28:30;;;;;;;3.97;2.92;;;25.80;90.70;;;;;;7551746;19;20017;-79
2023/07/28 12:31:15;;;;;;;5.95;3.42;;;25.90;89.10;;;;;;7551525;19;21602;-80
2023/07/28 12:33:48;;;;;;;5.05;2.75;;;26.20;89.30;;;;;;7557398;19;20026;-81
2023/07/28 12:36:21;;;;;;;4.20;3.30;;;26.50;90.40;;;;;;7576079;19;20018;-79
2023/07/28 12:39:13;;;;;;;5.20;3.15;;;26.30;86.60;;;;;;7538914;19;20014;-80
2023/07/28 12:41:49;;;;;;;5.80;3.55;;;26.50;87.80;;;;;;7549790;19;20479;-81
2023/07/28 12:44:42;;;;;;;15.07;3.17;;;26.60;85.80;;;;;;7582633;19;20017;-80
2023/07/28 12:47:17;;;;;;;3.65;2.70;;;26.80;87.20;;;;;;7566818;19;20686;-80
2023/07/28 12:49:51;;;;;;;6.50;3.03;;;26.90;83.70;;;;;;7555728;19;20538;-81
2023/07/28 12:52:23;;;;;;;3.88;2.67;;;26.70;82.90;;;;;;7564667;19;20782;-82
2023/07/28 12:55:17;;;;;;;5.75;3.25;;;26.70;84.30;;;;;;7546146;19;20896;-81
2023/07/28 12:58:01;;;;;;;5.65;3.53;;;27.20;84.90;;;;;;7575818;19;20017;-79
2023/07/28 13:00:33;;;;;;;4.05;3.13;;;27.30;81.90;;;;;;7563854;19;20043;-82
2023/07/28 13:03:09;;;;;;;4.40;3.42;;;27.60;82.90;;;;;;7567037;19;20058;-83
2023/07/28 13:05:48;;;;;;;5.00;2.88;;;27.60;82.40;;;;;;7537590;19;20688;-83
2023/07/28 13:08:20;;;;;;;7.65;3.38;;;27.60;81.60;;;;;;7527283;19;20024;-83
2023/07/28 13:11:23;;;;;;;4.30;3.22;;;27.30;82.60;;;;;;7578120;19;20022;-83
2023/07/28 13:13:56;;;;;;;4.72;3.35;;;27.00;82.00;;;;;;7550791;19;20913;-83
2023/07/28 13:16:28;;;;;;;3.20;2.72;;;27.00;82.30;;;;;;7538925;19;21574;-83
2023/07/28 13:19:00;;;;;;;6.63;3.43;;;26.90;82.10;;;;;;7531198;19;20019;-84
2023/07/28 13:21:33;;;;;;;4.10;2.97;;;27.00;80.30;;;;;;7512369;19;20103;-83
2023/07/28 13:24:05;;;;;;;3.13;2.83;;;26.90;80.30;;;;;;7578030;19;20606;-84
2023/07/28 13:26:38;;;;;;;5.63;3.28;;;26.70;81.60;;;;;;7579673;19;20029;-83